sensor_id;sensor_type;location;lat;lon;timestamp;pressure;altitude;pressure_sealevel;temperature
67599;BMP280;62026;39.230;9.122;2022-07-23T00:01:41;101166.06;;;30.05
67599;BMP280;62026;39.230;9.122;2022-07-23T00:04:07;101160.16;;;30.03
67599;BMP280;62026;39.230;9.122;2022-07-23T00:06:33;101162.66;;;30.08
67599;BMP280;62026;39.230;9.122;2022-07-23T00:08:59;101177.41;;;30.07
67599;BMP280;62026;39.230;9.122;2022-07-23T00:11:25;101161.75;;;30.04
67599;BMP280;62026;39.230;9.122;2022-07-23T00:13:51;101165.25;;;30.04
67599;BMP280;62026;39.230;9.122;2022-07-23T00:16:18;101164.94;;;30.06
67599;BMP280;62026;39.230;9.122;2022-07-23T00:18:45;101165.13;;;30.01
67599;BMP280;62026;39.230;9.122;2022-07-23T00:21:11;101158.53;;;30.02
67599;BMP280;62026;39.230;9.122;2022-07-23T00:23:37;101156.19;;;30.00
67599;BMP280;62026;39.230;9.122;2022-07-23T00:26:03;101146.84;;;29.89
67599;BMP280;62026;39.230;9.122;2022-07-23T00:28:30;101156.72;;;29.94
67599;BMP280;62026;39.230;9.122;2022-07-23T00:30:57;101152.84;;;29.95
67599;BMP280;62026;39.230;9.122;2022-07-23T00:33:23;101150.81;;;29.92
67599;BMP280;62026;39.230;9.122;2022-07-23T00:35:49;101140.13;;;29.87
67599;BMP280;62026;39.230;9.122;2022-07-23T00:38:15;101155.81;;;29.90
67599;BMP280;62026;39.230;9.122;2022-07-23T00:40:42;101141.75;;;29.88
67599;BMP280;62026;39.230;9.122;2022-07-23T00:43:08;101136.16;;;29.84
67599;BMP280;62026;39.230;9.122;2022-07-23T00:45:34;101137.75;;;29.85
67599;BMP280;62026;39.230;9.122;2022-07-23T00:48:01;101136.84;;;29.81
67599;BMP280;62026;39.230;9.122;2022-07-23T00:50:29;101121.03;;;29.74
67599;BMP280;62026;39.230;9.122;2022-07-23T00:52:56;101129.41;;;29.69
67599;BMP280;62026;39.230;9.122;2022-07-23T00:55:22;101107.50;;;29.54
67599;BMP280;62026;39.230;9.122;2022-07-23T00:57:49;101121.22;;;29.57
67599;BMP280;62026;39.230;9.122;2022-07-23T01:00:16;101120.44;;;29.57
67599;BMP280;62026;39.230;9.122;2022-07-23T01:02:42;101112.47;;;29.52
67599;BMP280;62026;39.230;9.122;2022-07-23T01:05:09;101110.53;;;29.52
67599;BMP280;62026;39.230;9.122;2022-07-23T01:07:36;101109.41;;;29.53
67599;BMP280;62026;39.230;9.122;2022-07-23T01:10:03;101108.47;;;29.49
67599;BMP280;62026;39.230;9.122;2022-07-23T01:12:30;101104.19;;;29.48
67599;BMP280;62026;39.230;9.122;2022-07-23T01:14:58;101117.13;;;29.51
67599;BMP280;62026;39.230;9.122;2022-07-23T01:17:26;101107.81;;;29.52
67599;BMP280;62026;39.230;9.122;2022-07-23T01:19:52;101108.47;;;29.49
67599;BMP280;62026;39.230;9.122;2022-07-23T01:22:19;101112.81;;;29.50
67599;BMP280;62026;39.230;9.122;2022-07-23T01:24:47;101113.13;;;29.49
67599;BMP280;62026;39.230;9.122;2022-07-23T01:27:13;101107.59;;;29.45
67599;BMP280;62026;39.230;9.122;2022-07-23T01:29:40;101094.16;;;29.40
67599;BMP280;62026;39.230;9.122;2022-07-23T01:32:17;101118.72;;;29.52
67599;BMP280;62026;39.230;9.122;2022-07-23T01:34:43;101106.22;;;29.51
67599;BMP280;62026;39.230;9.122;2022-07-23T01:37:09;101110.53;;;29.52
67599;BMP280;62026;39.230;9.122;2022-07-23T01:39:35;101113.91;;;29.49
67599;BMP280;62026;39.230;9.122;2022-07-23T01:42:02;101108.47;;;29.49
67599;BMP280;62026;39.230;9.122;2022-07-23T01:44:28;101113.13;;;29.49
67599;BMP280;62026;39.230;9.122;2022-07-23T01:46:56;101110.75;;;29.47
67599;BMP280;62026;39.230;9.122;2022-07-23T01:49:22;101107.59;;;29.45
67599;BMP280;62026;39.230;9.122;2022-07-23T01:52:07;101108.28;;;29.42
67599;BMP280;62026;39.230;9.122;2022-07-23T01:54:46;101091.66;;;29.35
67599;BMP280;62026;39.230;9.122;2022-07-23T01:57:12;101100.09;;;29.42
67599;BMP280;62026;39.230;9.122;2022-07-23T01:59:38;101100.66;;;29.48
67599;BMP280;62026;39.230;9.122;2022-07-23T02:02:05;101100.88;;;29.43
67599;BMP280;62026;39.230;9.122;2022-07-23T02:04:32;101100.53;;;29.44
67599;BMP280;62026;39.230;9.122;2022-07-23T02:07:01;101080.91;;;29.38
67599;BMP280;62026;39.230;9.122;2022-07-23T02:09:28;101102.22;;;29.49
67599;BMP280;62026;39.230;9.122;2022-07-23T02:11:54;101097.38;;;29.42
67599;BMP280;62026;39.230;9.122;2022-07-23T02:14:20;101093.03;;;29.41
67599;BMP280;62026;39.230;9.122;2022-07-23T02:16:46;101103.91;;;29.41
67599;BMP280;62026;39.230;9.122;2022-07-23T02:19:14;101105.84;;;29.40
67599;BMP280;62026;39.230;9.122;2022-07-23T02:21:40;101084.97;;;29.32
67599;BMP280;62026;39.230;9.122;2022-07-23T02:24:06;101092.00;;;29.33
67599;BMP280;62026;39.230;9.122;2022-07-23T02:26:33;101100.94;;;29.34
67599;BMP280;62026;39.230;9.122;2022-07-23T02:29:04;101096.59;;;29.21
67599;BMP280;62026;39.230;9.122;2022-07-23T02:31:30;101103.72;;;29.25
67599;BMP280;62026;39.230;9.122;2022-07-23T02:33:57;101101.38;;;29.24
67599;BMP280;62026;39.230;9.122;2022-07-23T02:36:23;101102.03;;;29.21
67599;BMP280;62026;39.230;9.122;2022-07-23T02:38:51;101099.16;;;29.17
67599;BMP280;62026;39.230;9.122;2022-07-23T02:41:18;101101.88;;;29.17
67599;BMP280;62026;39.230;9.122;2022-07-23T02:43:45;101102.69;;;29.18
67599;BMP280;62026;39.230;9.122;2022-07-23T02:46:12;101099.03;;;29.14
67599;BMP280;62026;39.230;9.122;2022-07-23T02:48:39;101083.78;;;29.01
67599;BMP280;62026;39.230;9.122;2022-07-23T02:51:05;101097.47;;;29.13
67599;BMP280;62026;39.230;9.122;2022-07-23T02:53:37;101096.31;;;29.14
67599;BMP280;62026;39.230;9.122;2022-07-23T02:56:03;101094.75;;;29.13
67599;BMP280;62026;39.230;9.122;2022-07-23T02:58:29;101095.41;;;29.10
67599;BMP280;62026;39.230;9.122;2022-07-23T03:00:55;101092.22;;;29.08
67599;BMP280;62026;39.230;9.122;2022-07-23T03:03:24;101084.25;;;29.03
67599;BMP280;62026;39.230;9.122;2022-07-23T03:05:50;101091.75;;;29.06
67599;BMP280;62026;39.230;9.122;2022-07-23T03:08:16;101089.69;;;29.03
67599;BMP280;62026;39.230;9.122;2022-07-23T03:10:47;101087.75;;;29.03
67599;BMP280;62026;39.230;9.122;2022-07-23T03:13:13;101086.53;;;29.01
67599;BMP280;62026;39.230;9.122;2022-07-23T03:15:39;101092.41;;;29.03
67599;BMP280;62026;39.230;9.122;2022-07-23T03:18:06;101083.53;;;28.93
67599;BMP280;62026;39.230;9.122;2022-07-23T03:20:32;101084.13;;;28.99
67599;BMP280;62026;39.230;9.122;2022-07-23T03:22:58;101091.97;;;29.01
67599;BMP280;62026;39.230;9.122;2022-07-23T03:25:24;101095.81;;;29.00
67599;BMP280;62026;39.230;9.122;2022-07-23T03:27:50;101093.53;;;29.02
67599;BMP280;62026;39.230;9.122;2022-07-23T03:30:16;101087.84;;;28.94
67599;BMP280;62026;39.230;9.122;2022-07-23T03:32:42;101089.41;;;28.95
67599;BMP280;62026;39.230;9.122;2022-07-23T03:35:09;101087.63;;;29.00
67599;BMP280;62026;39.230;9.122;2022-07-23T03:37:40;101110.63;;;29.02
67599;BMP280;62026;39.230;9.122;2022-07-23T03:40:07;101108.28;;;29.01
67599;BMP280;62026;39.230;9.122;2022-07-23T03:42:33;101108.59;;;28.99
67599;BMP280;62026;39.230;9.122;2022-07-23T03:45:03;101121.72;;;28.76
67599;BMP280;62026;39.230;9.122;2022-07-23T03:47:29;101118.81;;;28.81
67599;BMP280;62026;39.230;9.122;2022-07-23T03:49:55;101119.91;;;28.80
67599;BMP280;62026;39.230;9.122;2022-07-23T03:52:21;101120.16;;;28.67
67599;BMP280;62026;39.230;9.122;2022-07-23T03:54:47;101123.47;;;28.72
67599;BMP280;62026;39.230;9.122;2022-07-23T03:57:14;101125.06;;;28.73
67599;BMP280;62026;39.230;9.122;2022-07-23T03:59:40;101128.66;;;28.65
67599;BMP280;62026;39.230;9.122;2022-07-23T04:02:07;101135.00;;;28.69
67599;BMP280;62026;39.230;9.122;2022-07-23T04:04:33;101128.78;;;28.69
67599;BMP280;62026;39.230;9.122;2022-07-23T04:06:59;101128.09;;;28.72
67599;BMP280;62026;39.230;9.122;2022-07-23T04:09:25;101138.66;;;28.73
67599;BMP280;62026;39.230;9.122;2022-07-23T04:11:51;101121.47;;;28.61
67599;BMP280;62026;39.230;9.122;2022-07-23T04:14:19;101135.16;;;28.73
67599;BMP280;62026;39.230;9.122;2022-07-23T04:16:45;101133.53;;;28.72
67599;BMP280;62026;39.230;9.122;2022-07-23T04:19:12;101148.16;;;28.67
67599;BMP280;62026;39.230;9.122;2022-07-23T04:21:52;101133.53;;;28.72
67599;BMP280;62026;39.230;9.122;2022-07-23T04:24:18;101142.22;;;28.65
67599;BMP280;62026;39.230;9.122;2022-07-23T04:26:45;101149.09;;;28.71
67599;BMP280;62026;39.230;9.122;2022-07-23T04:29:11;101144.28;;;28.68
67599;BMP280;62026;39.230;9.122;2022-07-23T04:31:37;101133.94;;;28.62
67599;BMP280;62026;39.230;9.122;2022-07-23T04:34:05;101137.28;;;28.67
67599;BMP280;62026;39.230;9.122;2022-07-23T04:36:31;101156.75;;;28.69
67599;BMP280;62026;39.230;9.122;2022-07-23T04:38:58;101158.34;;;28.70
67599;BMP280;62026;39.230;9.122;2022-07-23T04:41:25;101152.91;;;28.70
67599;BMP280;62026;39.230;9.122;2022-07-23T04:43:51;101162.19;;;28.69
67599;BMP280;62026;39.230;9.122;2022-07-23T04:46:44;101168.28;;;28.66
67599;BMP280;62026;39.230;9.122;2022-07-23T04:49:18;101162.69;;;28.63
67599;BMP280;62026;39.230;9.122;2022-07-23T04:51:58;101171.00;;;28.66
67599;BMP280;62026;39.230;9.122;2022-07-23T04:54:24;101176.19;;;28.59
67599;BMP280;62026;39.230;9.122;2022-07-23T04:56:51;101170.91;;;28.54
67599;BMP280;62026;39.230;9.122;2022-07-23T04:59:17;101180.94;;;28.62
67599;BMP280;62026;39.230;9.122;2022-07-23T05:01:43;101170.09;;;28.53
67599;BMP280;62026;39.230;9.122;2022-07-23T05:04:10;101190.69;;;28.63
67599;BMP280;62026;39.230;9.122;2022-07-23T05:06:37;101183.94;;;28.69
67599;BMP280;62026;39.230;9.122;2022-07-23T05:09:03;101183.13;;;28.69
67599;BMP280;62026;39.230;9.122;2022-07-23T05:11:29;101180.28;;;28.65
67599;BMP280;62026;39.230;9.122;2022-07-23T05:13:55;101194.81;;;28.69
67599;BMP280;62026;39.230;9.122;2022-07-23T05:16:22;101187.91;;;28.72
67599;BMP280;62026;39.230;9.122;2022-07-23T05:18:50;101192.22;;;28.81
67599;BMP280;62026;39.230;9.122;2022-07-23T05:21:16;101190.00;;;28.75
67599;BMP280;62026;39.230;9.122;2022-07-23T05:23:43;101199.88;;;28.79
67599;BMP280;62026;39.230;9.122;2022-07-23T05:26:09;101195.88;;;28.85
67599;BMP280;62026;39.230;9.122;2022-07-23T05:28:35;101196.53;;;28.82
67599;BMP280;62026;39.230;9.122;2022-07-23T05:31:01;101188.81;;;28.84
67599;BMP280;62026;39.230;9.122;2022-07-23T05:33:30;101180.38;;;28.77
67599;BMP280;62026;39.230;9.122;2022-07-23T05:36:03;101186.00;;;29.02
67599;BMP280;62026;39.230;9.122;2022-07-23T05:38:33;101178.19;;;29.00
67599;BMP280;62026;39.230;9.122;2022-07-23T05:41:00;101179.09;;;29.25
67599;BMP280;62026;39.230;9.122;2022-07-23T05:43:28;101198.53;;;29.44
67599;BMP280;62026;39.230;9.122;2022-07-23T05:45:59;101205.94;;;29.56
67599;BMP280;62026;39.230;9.122;2022-07-23T05:48:25;101181.34;;;29.64
67599;BMP280;62026;39.230;9.122;2022-07-23T05:51:06;101193.56;;;29.79
67599;BMP280;62026;39.230;9.122;2022-07-23T05:53:34;101196.06;;;29.84
67599;BMP280;62026;39.230;9.122;2022-07-23T05:56:15;101190.78;;;29.88
67599;BMP280;62026;39.230;9.122;2022-07-23T05:58:41;101188.59;;;29.93
67599;BMP280;62026;39.230;9.122;2022-07-23T06:01:08;101197.03;;;30.00
67599;BMP280;62026;39.230;9.122;2022-07-23T06:03:44;101193.63;;;30.03
67599;BMP280;62026;39.230;9.122;2022-07-23T06:06:10;101197.41;;;30.11
67599;BMP280;62026;39.230;9.122;2022-07-23T06:08:36;101198.50;;;30.10
67599;BMP280;62026;39.230;9.122;2022-07-23T06:11:02;101201.03;;;30.15
67599;BMP280;62026;39.230;9.122;2022-07-23T06:13:28;101197.06;;;30.12
67599;BMP280;62026;39.230;9.122;2022-07-23T06:15:55;101197.72;;;30.09
67599;BMP280;62026;39.230;9.122;2022-07-23T06:18:21;101210.59;;;30.21
67599;BMP280;62026;39.230;9.122;2022-07-23T06:20:47;101204.34;;;30.20
67599;BMP280;62026;39.230;9.122;2022-07-23T06:23:13;101217.41;;;30.27
67599;BMP280;62026;39.230;9.122;2022-07-23T06:25:39;101212.28;;;30.25
67599;BMP280;62026;39.230;9.122;2022-07-23T06:28:05;101219.47;;;30.30
67599;BMP280;62026;39.230;9.122;2022-07-23T06:30:31;101224.91;;;30.30
67599;BMP280;62026;39.230;9.122;2022-07-23T06:32:58;101225.34;;;30.32
67599;BMP280;62026;39.230;9.122;2022-07-23T06:35:24;101222.19;;;30.30
67599;BMP280;62026;39.230;9.122;2022-07-23T06:37:50;101218.13;;;30.36
67599;BMP280;62026;39.230;9.122;2022-07-23T06:40:16;101217.31;;;30.36
67599;BMP280;62026;39.230;9.122;2022-07-23T06:42:42;101237.19;;;30.48
67599;BMP280;62026;39.230;9.122;2022-07-23T06:45:15;101228.00;;;30.53
67599;BMP280;62026;39.230;9.122;2022-07-23T06:47:41;101244.69;;;30.63
67599;BMP280;62026;39.230;9.122;2022-07-23T06:50:08;101225.97;;;30.62
67599;BMP280;62026;39.230;9.122;2022-07-23T06:52:34;101231.78;;;30.72
67599;BMP280;62026;39.230;9.122;2022-07-23T06:55:00;101240.16;;;30.80
67599;BMP280;62026;39.230;9.122;2022-07-23T06:57:26;101238.69;;;30.82
67599;BMP280;62026;39.230;9.122;2022-07-23T06:59:53;101240.59;;;30.94
67599;BMP280;62026;39.230;9.122;2022-07-23T07:02:19;101239.47;;;31.07
67599;BMP280;62026;39.230;9.122;2022-07-23T07:04:47;101248.34;;;31.04
67599;BMP280;62026;39.230;9.122;2022-07-23T07:07:13;101230.72;;;31.01
67599;BMP280;62026;39.230;9.122;2022-07-23T07:09:39;101234.44;;;31.09
67599;BMP280;62026;39.230;9.122;2022-07-23T07:12:05;101245.31;;;31.33
67599;BMP280;62026;39.230;9.122;2022-07-23T07:14:32;101247.78;;;31.38
67599;BMP280;62026;39.230;9.122;2022-07-23T07:16:58;101237.28;;;31.52
67599;BMP280;62026;39.230;9.122;2022-07-23T07:19:24;101247.06;;;31.53
67599;BMP280;62026;39.230;9.122;2022-07-23T07:21:50;101246.31;;;31.69
67599;BMP280;62026;39.230;9.122;2022-07-23T07:24:16;101233.59;;;31.73
67599;BMP280;62026;39.230;9.122;2022-07-23T07:26:42;101245.84;;;31.79
67599;BMP280;62026;39.230;9.122;2022-07-23T07:29:08;101246.91;;;31.90
67599;BMP280;62026;39.230;9.122;2022-07-23T07:31:34;101236.16;;;31.81
67599;BMP280;62026;39.230;9.122;2022-07-23T07:34:00;101237.63;;;31.79
67599;BMP280;62026;39.230;9.122;2022-07-23T07:36:26;101231.22;;;31.87
67599;BMP280;62026;39.230;9.122;2022-07-23T07:38:52;101245.63;;;32.15
67599;BMP280;62026;39.230;9.122;2022-07-23T07:41:18;101237.28;;;32.24
67599;BMP280;62026;39.230;9.122;2022-07-23T07:43:48;101242.81;;;32.27
67599;BMP280;62026;39.230;9.122;2022-07-23T07:46:15;101241.66;;;32.28
67599;BMP280;62026;39.230;9.122;2022-07-23T07:48:41;101239.09;;;32.20
67599;BMP280;62026;39.230;9.122;2022-07-23T07:51:07;101238.38;;;32.23
67599;BMP280;62026;39.230;9.122;2022-07-23T07:53:33;101240.94;;;32.00
67599;BMP280;62026;39.230;9.122;2022-07-23T07:55:59;101225.59;;;32.11
67599;BMP280;62026;39.230;9.122;2022-07-23T07:58:25;101238.13;;;32.43
67599;BMP280;62026;39.230;9.122;2022-07-23T08:00:51;101246.44;;;32.31
67599;BMP280;62026;39.230;9.122;2022-07-23T08:03:18;101232.84;;;32.19
67599;BMP280;62026;39.230;9.122;2022-07-23T08:05:44;101227.63;;;32.45
67599;BMP280;62026;39.230;9.122;2022-07-23T08:08:10;101247.03;;;32.40
67599;BMP280;62026;39.230;9.122;2022-07-23T08:10:41;101253.56;;;32.04
67599;BMP280;62026;39.230;9.122;2022-07-23T08:13:16;101244.31;;;32.09
67599;BMP280;62026;39.230;9.122;2022-07-23T08:15:43;101235.53;;;31.88
67599;BMP280;62026;39.230;9.122;2022-07-23T08:18:09;101246.47;;;31.88
67599;BMP280;62026;39.230;9.122;2022-07-23T08:20:36;101253.00;;;32.62
67599;BMP280;62026;39.230;9.122;2022-07-23T08:23:09;101236.38;;;32.35
67599;BMP280;62026;39.230;9.122;2022-07-23T08:25:39;101246.88;;;32.49
67599;BMP280;62026;39.230;9.122;2022-07-23T08:28:09;101242.19;;;32.18
67599;BMP280;62026;39.230;9.122;2022-07-23T08:30:37;101258.59;;;32.18
67599;BMP280;62026;39.230;9.122;2022-07-23T08:33:18;101252.88;;;32.39
67599;BMP280;62026;39.230;9.122;2022-07-23T08:35:47;101255.16;;;33.03
67599;BMP280;62026;39.230;9.122;2022-07-23T08:38:17;101252.84;;;33.05
67599;BMP280;62026;39.230;9.122;2022-07-23T08:40:47;101253.34;;;32.76
67599;BMP280;62026;39.230;9.122;2022-07-23T08:43:19;101246.13;;;32.68
67599;BMP280;62026;39.230;9.122;2022-07-23T08:45:49;101254.47;;;32.40
67599;BMP280;62026;39.230;9.122;2022-07-23T08:48:22;101245.09;;;32.56
67599;BMP280;62026;39.230;9.122;2022-07-23T08:50:55;101254.09;;;32.92
67599;BMP280;62026;39.230;9.122;2022-07-23T08:53:23;101232.66;;;32.94
67599;BMP280;62026;39.230;9.122;2022-07-23T08:55:54;101253.59;;;33.21
67599;BMP280;62026;39.230;9.122;2022-07-23T08:58:21;101266.69;;;32.93
67599;BMP280;62026;39.230;9.122;2022-07-23T09:00:48;101247.84;;;32.91
67599;BMP280;62026;39.230;9.122;2022-07-23T09:03:28;101251.09;;;32.97
67599;BMP280;62026;39.230;9.122;2022-07-23T09:05:56;101253.44;;;33.33
67599;BMP280;62026;39.230;9.122;2022-07-23T09:08:26;101255.56;;;32.86
67599;BMP280;62026;39.230;9.122;2022-07-23T09:11:02;101245.69;;;32.66
67599;BMP280;62026;39.230;9.122;2022-07-23T09:13:52;101260.31;;;32.89
67599;BMP280;62026;39.230;9.122;2022-07-23T09:16:27;101257.91;;;33.41
67599;BMP280;62026;39.230;9.122;2022-07-23T09:19:00;101245.44;;;33.25
67599;BMP280;62026;39.230;9.122;2022-07-23T09:21:34;101255.38;;;33.14
67599;BMP280;62026;39.230;9.122;2022-07-23T09:26:37;101257.78;;;33.15
67599;BMP280;62026;39.230;9.122;2022-07-23T09:29:06;101265.25;;;33.37
67599;BMP280;62026;39.230;9.122;2022-07-23T09:31:58;101253.28;;;33.65
67599;BMP280;62026;39.230;9.122;2022-07-23T09:34:33;101266.00;;;33.34
67599;BMP280;62026;39.230;9.122;2022-07-23T09:37:13;101259.47;;;32.85
67599;BMP280;62026;39.230;9.122;2022-07-23T09:39:41;101253.72;;;32.74
67599;BMP280;62026;39.230;9.122;2022-07-23T09:42:25;101250.34;;;32.81
67599;BMP280;62026;39.230;9.122;2022-07-23T09:44:54;101248.88;;;33.02
67599;BMP280;62026;39.230;9.122;2022-07-23T09:47:24;101246.22;;;32.71
67599;BMP280;62026;39.230;9.122;2022-07-23T09:50:01;101250.00;;;32.82
67599;BMP280;62026;39.230;9.122;2022-07-23T09:52:33;101240.44;;;33.11
67599;BMP280;62026;39.230;9.122;2022-07-23T09:55:01;101249.91;;;33.14
67599;BMP280;62026;39.230;9.122;2022-07-23T09:57:28;101247.22;;;32.98
67599;BMP280;62026;39.230;9.122;2022-07-23T10:00:00;101238.56;;;32.96
67599;BMP280;62026;39.230;9.122;2022-07-23T10:02:28;101244.66;;;33.24
67599;BMP280;62026;39.230;9.122;2022-07-23T10:05:27;101238.63;;;32.99
67599;BMP280;62026;39.230;9.122;2022-07-23T10:08:12;101244.66;;;33.24
67599;BMP280;62026;39.230;9.122;2022-07-23T10:10:42;101245.78;;;32.85
67599;BMP280;62026;39.230;9.122;2022-07-23T10:13:27;101240.31;;;33.04
67599;BMP280;62026;39.230;9.122;2022-07-23T10:15:58;101246.94;;;33.22
67599;BMP280;62026;39.230;9.122;2022-07-23T10:18:25;101238.75;;;33.41
67599;BMP280;62026;39.230;9.122;2022-07-23T10:20:52;101227.09;;;33.90
67599;BMP280;62026;39.230;9.122;2022-07-23T10:23:35;101234.13;;;33.45
67599;BMP280;62026;39.230;9.122;2022-07-23T10:26:30;101228.28;;;33.28
67599;BMP280;62026;39.230;9.122;2022-07-23T10:37:57;101222.44;;;33.29
67599;BMP280;62026;39.230;9.122;2022-07-23T10:40:27;101217.19;;;33.21
67599;BMP280;62026;39.230;9.122;2022-07-23T10:43:00;101227.34;;;33.20
67599;BMP280;62026;39.230;9.122;2022-07-23T10:48:17;101225.16;;;33.29
67599;BMP280;62026;39.230;9.122;2022-07-23T10:51:12;101221.88;;;33.20
67599;BMP280;62026;39.230;9.122;2022-07-23T10:56:50;101220.31;;;32.84
67599;BMP280;62026;39.230;9.122;2022-07-23T10:59:16;101218.47;;;32.88
67599;BMP280;62026;39.230;9.122;2022-07-23T11:01:44;101212.63;;;32.90
67599;BMP280;62026;39.230;9.122;2022-07-23T11:04:10;101222.88;;;32.93
67599;BMP280;62026;39.230;9.122;2022-07-23T11:09:42;101217.25;;;32.86
67599;BMP280;62026;39.230;9.122;2022-07-23T11:15:13;101208.72;;;32.91
67599;BMP280;62026;39.230;9.122;2022-07-23T11:25:03;101222.81;;;32.74
67599;BMP280;62026;39.230;9.122;2022-07-23T11:27:46;101212.63;;;32.55
67599;BMP280;62026;39.230;9.122;2022-07-23T11:33:16;101199.16;;;32.46
67599;BMP280;62026;39.230;9.122;2022-07-23T11:36:06;101202.09;;;32.73
67599;BMP280;62026;39.230;9.122;2022-07-23T11:38:32;101199.78;;;32.75
67599;BMP280;62026;39.230;9.122;2022-07-23T11:40:58;101191.84;;;32.70
67599;BMP280;62026;39.230;9.122;2022-07-23T11:43:25;101191.19;;;32.57
67599;BMP280;62026;39.230;9.122;2022-07-23T11:45:59;101201.50;;;32.64
67599;BMP280;62026;39.230;9.122;2022-07-23T11:48:30;101195.13;;;32.59
67599;BMP280;62026;39.230;9.122;2022-07-23T11:50:58;101180.38;;;32.64
67599;BMP280;62026;39.230;9.122;2022-07-23T11:55:53;101186.38;;;32.70
67599;BMP280;62026;39.230;9.122;2022-07-23T11:58:20;101164.09;;;32.52
67599;BMP280;62026;39.230;9.122;2022-07-23T12:00:46;101174.44;;;32.58
67599;BMP280;62026;39.230;9.122;2022-07-23T12:03:13;101190.72;;;32.71
67599;BMP280;62026;39.230;9.122;2022-07-23T12:05:40;101172.72;;;32.54
67599;BMP280;62026;39.230;9.122;2022-07-23T12:08:09;101177.28;;;32.46
67599;BMP280;62026;39.230;9.122;2022-07-23T12:10:42;101182.41;;;32.32
67599;BMP280;62026;39.230;9.122;2022-07-23T12:13:12;101182.22;;;32.41
67599;BMP280;62026;39.230;9.122;2022-07-23T12:15:45;101190.34;;;32.37
67599;BMP280;62026;39.230;9.122;2022-07-23T12:18:15;101179.41;;;32.37
67599;BMP280;62026;39.230;9.122;2022-07-23T12:20:49;101186.63;;;32.45
67599;BMP280;62026;39.230;9.122;2022-07-23T12:23:19;101179.63;;;32.64
67599;BMP280;62026;39.230;9.122;2022-07-23T12:25:47;101188.25;;;32.66
67599;BMP280;62026;39.230;9.122;2022-07-23T12:28:21;101182.41;;;32.67
67599;BMP280;62026;39.230;9.122;2022-07-23T12:30:49;101184.72;;;32.65
67599;BMP280;62026;39.230;9.122;2022-07-23T12:33:33;101170.47;;;32.75
67599;BMP280;62026;39.230;9.122;2022-07-23T12:36:04;101180.03;;;32.66
67599;BMP280;62026;39.230;9.122;2022-07-23T12:38:43;101177.16;;;32.58
67599;BMP280;62026;39.230;9.122;2022-07-23T12:41:10;101184.91;;;32.56
67599;BMP280;62026;39.230;9.122;2022-07-23T12:43:40;101169.09;;;32.66
67599;BMP280;62026;39.230;9.122;2022-07-23T12:46:11;101171.00;;;32.81
67599;BMP280;62026;39.230;9.122;2022-07-23T12:51:30;101166.63;;;32.95
67599;BMP280;62026;39.230;9.122;2022-07-23T12:54:09;101179.63;;;32.83
67599;BMP280;62026;39.230;9.122;2022-07-23T12:56:44;101171.78;;;32.81
67599;BMP280;62026;39.230;9.122;2022-07-23T12:59:14;101152.84;;;32.73
67599;BMP280;62026;39.230;9.122;2022-07-23T13:01:44;101168.16;;;32.93
67599;BMP280;62026;39.230;9.122;2022-07-23T13:04:19;101162.38;;;32.98
67599;BMP280;62026;39.230;9.122;2022-07-23T13:06:51;101154.00;;;32.91
67599;BMP280;62026;39.230;9.122;2022-07-23T13:09:23;101151.22;;;32.87
67599;BMP280;62026;39.230;9.122;2022-07-23T13:11:52;101156.41;;;32.92
67599;BMP280;62026;39.230;9.122;2022-07-23T13:14:20;101144.63;;;32.92
67599;BMP280;62026;39.230;9.122;2022-07-23T13:16:48;101157.38;;;33.03
67599;BMP280;62026;39.230;9.122;2022-07-23T13:19:15;101139.13;;;33.08
67599;BMP280;62026;39.230;9.122;2022-07-23T13:21:42;101148.88;;;33.09
67599;BMP280;62026;39.230;9.122;2022-07-23T13:24:10;101140.19;;;33.03
67599;BMP280;62026;39.230;9.122;2022-07-23T13:26:37;101139.13;;;33.08
67599;BMP280;62026;39.230;9.122;2022-07-23T13:29:05;101147.22;;;33.04
67599;BMP280;62026;39.230;9.122;2022-07-23T13:31:31;101133.34;;;33.13
67599;BMP280;62026;39.230;9.122;2022-07-23T13:33:58;101138.13;;;33.19
67599;BMP280;62026;39.230;9.122;2022-07-23T13:36:24;101118.44;;;33.10
67599;BMP280;62026;39.230;9.122;2022-07-23T13:38:50;101131.44;;;33.17
67599;BMP280;62026;39.230;9.122;2022-07-23T13:41:18;101133.56;;;33.23
67599;BMP280;62026;39.230;9.122;2022-07-23T13:43:44;101131.00;;;33.15
67599;BMP280;62026;39.230;9.122;2022-07-23T13:46:10;101129.06;;;33.34
67599;BMP280;62026;39.230;9.122;2022-07-23T13:48:36;101127.47;;;33.33
67599;BMP280;62026;39.230;9.122;2022-07-23T13:51:02;101129.19;;;33.41
67599;BMP280;62026;39.230;9.122;2022-07-23T13:53:29;101135.53;;;33.45
67599;BMP280;62026;39.230;9.122;2022-07-23T13:55:55;101132.22;;;33.36
67599;BMP280;62026;39.230;9.122;2022-07-23T13:58:22;101125.66;;;33.22
67599;BMP280;62026;39.230;9.122;2022-07-23T14:00:51;101127.19;;;33.19
67599;BMP280;62026;39.230;9.122;2022-07-23T14:03:21;101120.59;;;33.01
67599;BMP280;62026;39.230;9.122;2022-07-23T14:05:52;101114.19;;;32.93
67599;BMP280;62026;39.230;9.122;2022-07-23T14:08:19;101119.06;;;33.03
67599;BMP280;62026;39.230;9.122;2022-07-23T14:10:45;101115.13;;;33.01
67599;BMP280;62026;39.230;9.122;2022-07-23T14:13:11;101113.66;;;33.07
67599;BMP280;62026;39.230;9.122;2022-07-23T14:15:37;101117.03;;;33.20
67599;BMP280;62026;39.230;9.122;2022-07-23T14:18:06;101110.56;;;33.09
67599;BMP280;62026;39.230;9.122;2022-07-23T14:20:33;101120.28;;;33.06
67599;BMP280;62026;39.230;9.122;2022-07-23T14:22:59;101118.91;;;32.93
67599;BMP280;62026;39.230;9.122;2022-07-23T14:25:26;101120.53;;;32.78
67599;BMP280;62026;39.230;9.122;2022-07-23T14:27:53;101113.94;;;32.83
67599;BMP280;62026;39.230;9.122;2022-07-23T14:30:19;101113.38;;;32.74
67599;BMP280;62026;39.230;9.122;2022-07-23T14:32:45;101113.13;;;32.79
67599;BMP280;62026;39.230;9.122;2022-07-23T14:35:11;101114.25;;;32.58
67599;BMP280;62026;39.230;9.122;2022-07-23T14:37:39;101115.97;;;32.67
67599;BMP280;62026;39.230;9.122;2022-07-23T14:40:06;101119.13;;;32.69
67599;BMP280;62026;39.230;9.122;2022-07-23T14:42:32;101119.53;;;32.51
67599;BMP280;62026;39.230;9.122;2022-07-23T14:44:58;101109.13;;;32.57